sensor_id;sensor_type;location;lat;lon;timestamp;P1;durP1;ratioP1;P2;durP2;ratioP2
37205;SDS011;23099;42.636;23.198;2022-07-06T00:01:51;13.63;;;9.57;;
37205;SDS011;23099;42.636;23.198;2022-07-06T00:04:20;15.50;;;9.90;;
37205;SDS011;23099;42.636;23.198;2022-07-06T00:09:13;17.73;;;10.57;;
37205;SDS011;23099;42.636;23.198;2022-07-06T00:11:41;18.25;;;11.43;;
37205;SDS011;23099;42.636;23.198;2022-07-06T00:14:07;15.68;;;11.18;;
37205;SDS011;23099;42.636;23.198;2022-07-06T00:16:34;17.25;;;10.90;;
37205;SDS011;23099;42.636;23.198;2022-07-06T00:19:01;16.58;;;12.05;;
37205;SDS011;23099;42.636;23.198;2022-07-06T00:21:29;17.27;;;12.00;;
37205;SDS011;23099;42.636;23.198;2022-07-06T00:23:56;16.13;;;11.85;;
37205;SDS011;23099;42.636;23.198;2022-07-06T00:26:23;17.88;;;11.90;;
37205;SDS011;23099;42.636;23.198;2022-07-06T00:28:50;15.60;;;12.60;;
37205;SDS011;23099;42.636;23.198;2022-07-06T00:31:16;21.73;;;12.20;;
37205;SDS011;23099;42.636;23.198;2022-07-06T00:33:43;14.10;;;11.00;;
37205;SDS011;23099;42.636;23.198;2022-07-06T00:36:10;18.13;;;11.25;;
37205;SDS011;23099;42.636;23.198;2022-07-06T00:38:38;13.30;;;9.82;;
37205;SDS011;23099;42.636;23.198;2022-07-06T00:41:05;14.90;;;9.95;;
37205;SDS011;23099;42.636;23.198;2022-07-06T00:43:46;15.88;;;9.95;;
37205;SDS011;23099;42.636;23.198;2022-07-06T00:46:13;15.35;;;10.85;;
37205;SDS011;23099;42.636;23.198;2022-07-06T00:48:40;14.50;;;10.15;;
37205;SDS011;23099;42.636;23.198;2022-07-06T00:51:07;15.05;;;10.65;;
37205;SDS011;23099;42.636;23.198;2022-07-06T00:53:34;14.77;;;11.15;;
37205;SDS011;23099;42.636;23.198;2022-07-06T00:56:02;15.10;;;10.82;;
37205;SDS011;23099;42.636;23.198;2022-07-06T00:58:29;17.83;;;11.32;;
37205;SDS011;23099;42.636;23.198;2022-07-06T01:00:56;15.95;;;11.93;;
37205;SDS011;23099;42.636;23.198;2022-07-06T01:03:23;17.05;;;11.73;;
37205;SDS011;23099;42.636;23.198;2022-07-06T01:05:50;15.48;;;11.48;;
37205;SDS011;23099;42.636;23.198;2022-07-06T01:08:17;20.20;;;13.07;;
37205;SDS011;23099;42.636;23.198;2022-07-06T01:10:44;19.52;;;13.85;;
37205;SDS011;23099;42.636;23.198;2022-07-06T01:13:12;16.90;;;12.88;;
37205;SDS011;23099;42.636;23.198;2022-07-06T01:15:39;20.63;;;12.75;;
37205;SDS011;23099;42.636;23.198;2022-07-06T01:18:06;19.45;;;13.50;;
37205;SDS011;23099;42.636;23.198;2022-07-06T01:20:37;20.50;;;14.02;;
37205;SDS011;23099;42.636;23.198;2022-07-06T01:23:04;23.95;;;15.02;;
37205;SDS011;23099;42.636;23.198;2022-07-06T01:25:31;22.38;;;14.70;;
37205;SDS011;23099;42.636;23.198;2022-07-06T01:27:57;19.30;;;14.27;;
37205;SDS011;23099;42.636;23.198;2022-07-06T01:30:24;20.92;;;14.23;;
37205;SDS011;23099;42.636;23.198;2022-07-06T01:32:51;21.52;;;12.25;;
37205;SDS011;23099;42.636;23.198;2022-07-06T01:35:18;21.83;;;13.32;;
37205;SDS011;23099;42.636;23.198;2022-07-06T01:37:47;20.35;;;12.82;;
37205;SDS011;23099;42.636;23.198;2022-07-06T01:40:13;23.23;;;13.82;;
37205;SDS011;23099;42.636;23.198;2022-07-06T01:42:40;21.30;;;12.93;;
37205;SDS011;23099;42.636;23.198;2022-07-06T01:45:08;21.83;;;13.05;;
37205;SDS011;23099;42.636;23.198;2022-07-06T01:47:35;19.50;;;12.88;;
37205;SDS011;23099;42.636;23.198;2022-07-06T01:50:03;19.40;;;12.90;;
37205;SDS011;23099;42.636;23.198;2022-07-06T01:52:31;19.08;;;12.60;;
37205;SDS011;23099;42.636;23.198;2022-07-06T01:55:00;18.90;;;12.77;;
37205;SDS011;23099;42.636;23.198;2022-07-06T01:57:26;19.30;;;13.20;;
37205;SDS011;23099;42.636;23.198;2022-07-06T01:59:53;18.27;;;13.23;;
37205;SDS011;23099;42.636;23.198;2022-07-06T02:02:20;19.77;;;13.05;;
37205;SDS011;23099;42.636;23.198;2022-07-06T02:04:46;19.90;;;12.57;;
37205;SDS011;23099;42.636;23.198;2022-07-06T02:07:13;19.00;;;12.27;;
37205;SDS011;23099;42.636;23.198;2022-07-06T02:09:40;19.00;;;11.88;;
37205;SDS011;23099;42.636;23.198;2022-07-06T02:12:08;20.33;;;12.95;;
37205;SDS011;23099;42.636;23.198;2022-07-06T02:17:02;20.48;;;12.98;;
37205;SDS011;23099;42.636;23.198;2022-07-06T02:19:29;24.25;;;14.30;;
37205;SDS011;23099;42.636;23.198;2022-07-06T02:21:55;20.58;;;14.70;;
37205;SDS011;23099;42.636;23.198;2022-07-06T02:24:22;20.38;;;12.75;;
37205;SDS011;23099;42.636;23.198;2022-07-06T02:26:49;20.08;;;12.55;;
37205;SDS011;23099;42.636;23.198;2022-07-06T02:29:17;18.45;;;12.23;;
37205;SDS011;23099;42.636;23.198;2022-07-06T02:31:44;19.77;;;10.93;;
37205;SDS011;23099;42.636;23.198;2022-07-06T02:34:11;16.85;;;11.38;;
37205;SDS011;23099;42.636;23.198;2022-07-06T02:36:38;15.40;;;10.73;;
37205;SDS011;23099;42.636;23.198;2022-07-06T02:39:05;19.58;;;10.68;;
37205;SDS011;23099;42.636;23.198;2022-07-06T02:41:31;17.85;;;10.30;;
37205;SDS011;23099;42.636;23.198;2022-07-06T02:43:58;18.80;;;11.15;;
37205;SDS011;23099;42.636;23.198;2022-07-06T02:46:26;22.02;;;12.38;;
37205;SDS011;23099;42.636;23.198;2022-07-06T02:48:53;20.02;;;11.30;;
37205;SDS011;23099;42.636;23.198;2022-07-06T02:51:20;18.63;;;10.98;;
37205;SDS011;23099;42.636;23.198;2022-07-06T02:56:14;16.52;;;10.43;;
37205;SDS011;23099;42.636;23.198;2022-07-06T02:58:41;17.08;;;11.57;;
37205;SDS011;23099;42.636;23.198;2022-07-06T03:01:08;20.05;;;10.82;;
37205;SDS011;23099;42.636;23.198;2022-07-06T03:03:36;17.60;;;12.50;;
37205;SDS011;23099;42.636;23.198;2022-07-06T03:06:03;23.08;;;12.80;;
37205;SDS011;23099;42.636;23.198;2022-07-06T03:08:30;19.80;;;12.85;;
37205;SDS011;23099;42.636;23.198;2022-07-06T03:10:56;21.88;;;12.88;;
37205;SDS011;23099;42.636;23.198;2022-07-06T03:13:23;20.38;;;14.43;;
37205;SDS011;23099;42.636;23.198;2022-07-06T03:15:50;23.52;;;14.07;;
37205;SDS011;23099;42.636;23.198;2022-07-06T03:18:17;20.63;;;14.25;;
37205;SDS011;23099;42.636;23.198;2022-07-06T03:20:45;19.13;;;14.13;;
37205;SDS011;23099;42.636;23.198;2022-07-06T03:23:12;21.25;;;14.52;;
37205;SDS011;23099;42.636;23.198;2022-07-06T03:25:38;23.80;;;13.52;;
37205;SDS011;23099;42.636;23.198;2022-07-06T03:28:05;21.35;;;14.30;;
37205;SDS011;23099;42.636;23.198;2022-07-06T03:30:32;19.20;;;12.75;;
37205;SDS011;23099;42.636;23.198;2022-07-06T03:32:58;17.83;;;12.93;;
37205;SDS011;23099;42.636;23.198;2022-07-06T03:35:25;22.27;;;13.18;;
37205;SDS011;23099;42.636;23.198;2022-07-06T03:37:53;18.02;;;13.02;;
37205;SDS011;23099;42.636;23.198;2022-07-06T03:40:20;18.23;;;12.60;;
37205;SDS011;23099;42.636;23.198;2022-07-06T03:42:47;18.08;;;11.65;;
37205;SDS011;23099;42.636;23.198;2022-07-06T03:45:14;16.90;;;11.43;;
37205;SDS011;23099;42.636;23.198;2022-07-06T03:47:40;20.02;;;11.70;;
37205;SDS011;23099;42.636;23.198;2022-07-06T03:50:07;18.55;;;11.57;;
37205;SDS011;23099;42.636;23.198;2022-07-06T03:52:34;16.95;;;11.23;;
37205;SDS011;23099;42.636;23.198;2022-07-06T03:55:06;21.75;;;11.13;;
37205;SDS011;23099;42.636;23.198;2022-07-06T03:57:34;22.98;;;10.80;;
37205;SDS011;23099;42.636;23.198;2022-07-06T04:00:01;16.17;;;10.70;;
37205;SDS011;23099;42.636;23.198;2022-07-06T04:02:28;19.50;;;11.75;;
37205;SDS011;23099;42.636;23.198;2022-07-06T04:04:55;19.20;;;12.43;;
37205;SDS011;23099;42.636;23.198;2022-07-06T04:07:22;22.02;;;12.68;;
37205;SDS011;23099;42.636;23.198;2022-07-06T04:09:48;16.80;;;10.02;;
37205;SDS011;23099;42.636;23.198;2022-07-06T04:12:17;22.80;;;10.50;;
37205;SDS011;23099;42.636;23.198;2022-07-06T04:14:43;20.42;;;11.30;;
37205;SDS011;23099;42.636;23.198;2022-07-06T04:17:10;17.33;;;12.15;;
37205;SDS011;23099;42.636;23.198;2022-07-06T04:19:54;21.08;;;11.82;;
37205;SDS011;23099;42.636;23.198;2022-07-06T04:22:21;20.63;;;11.40;;
37205;SDS011;23099;42.636;23.198;2022-07-06T04:24:48;18.13;;;11.43;;
37205;SDS011;23099;42.636;23.198;2022-07-06T04:27:14;17.67;;;10.30;;
37205;SDS011;23099;42.636;23.198;2022-07-06T04:29:43;19.63;;;9.85;;
37205;SDS011;23099;42.636;23.198;2022-07-06T04:32:09;19.08;;;9.50;;
37205;SDS011;23099;42.636;23.198;2022-07-06T04:34:36;13.35;;;8.20;;
37205;SDS011;23099;42.636;23.198;2022-07-06T04:37:03;14.95;;;7.22;;
37205;SDS011;23099;42.636;23.198;2022-07-06T04:39:30;21.85;;;7.50;;
37205;SDS011;23099;42.636;23.198;2022-07-06T04:41:57;17.08;;;7.43;;
37205;SDS011;23099;42.636;23.198;2022-07-06T04:44:25;18.52;;;7.10;;
37205;SDS011;23099;42.636;23.198;2022-07-06T04:46:52;14.30;;;6.68;;
37205;SDS011;23099;42.636;23.198;2022-07-06T04:49:18;16.27;;;7.07;;
37205;SDS011;23099;42.636;23.198;2022-07-06T04:51:45;17.50;;;7.55;;
37205;SDS011;23099;42.636;23.198;2022-07-06T04:54:12;19.70;;;8.05;;
37205;SDS011;23099;42.636;23.198;2022-07-06T04:56:38;14.77;;;7.40;;
37205;SDS011;23099;42.636;23.198;2022-07-06T04:59:05;13.73;;;7.60;;
37205;SDS011;23099;42.636;23.198;2022-07-06T05:01:33;21.42;;;8.00;;
37205;SDS011;23099;42.636;23.198;2022-07-06T05:04:00;16.98;;;8.07;;
37205;SDS011;23099;42.636;23.198;2022-07-06T05:06:27;15.75;;;8.50;;
37205;SDS011;23099;42.636;23.198;2022-07-06T05:08:53;11.80;;;7.57;;
37205;SDS011;23099;42.636;23.198;2022-07-06T05:11:20;14.85;;;8.68;;
37205;SDS011;23099;42.636;23.198;2022-07-06T05:13:47;17.80;;;8.80;;
37205;SDS011;23099;42.636;23.198;2022-07-06T05:16:14;13.60;;;8.80;;
37205;SDS011;23099;42.636;23.198;2022-07-06T05:18:42;16.85;;;9.88;;
37205;SDS011;23099;42.636;23.198;2022-07-06T05:21:08;17.13;;;9.38;;
37205;SDS011;23099;42.636;23.198;2022-07-06T05:23:35;21.92;;;10.65;;
37205;SDS011;23099;42.636;23.198;2022-07-06T05:26:02;17.13;;;9.90;;
37205;SDS011;23099;42.636;23.198;2022-07-06T05:28:29;19.00;;;11.15;;
37205;SDS011;23099;42.636;23.198;2022-07-06T05:30:55;17.05;;;10.10;;
37205;SDS011;23099;42.636;23.198;2022-07-06T05:33:22;16.45;;;9.00;;
37205;SDS011;23099;42.636;23.198;2022-07-06T05:35:50;17.48;;;9.60;;
37205;SDS011;23099;42.636;23.198;2022-07-06T05:38:17;16.40;;;9.00;;
37205;SDS011;23099;42.636;23.198;2022-07-06T05:40:44;15.75;;;9.55;;
37205;SDS011;23099;42.636;23.198;2022-07-06T05:43:11;15.95;;;9.98;;
37205;SDS011;23099;42.636;23.198;2022-07-06T05:45:37;16.55;;;9.82;;
37205;SDS011;23099;42.636;23.198;2022-07-06T05:48:04;15.98;;;9.32;;
37205;SDS011;23099;42.636;23.198;2022-07-06T05:50:50;15.25;;;9.38;;
37205;SDS011;23099;42.636;23.198;2022-07-06T05:53:17;19.23;;;9.95;;
37205;SDS011;23099;42.636;23.198;2022-07-06T05:55:44;15.40;;;10.20;;
37205;SDS011;23099;42.636;23.198;2022-07-06T05:58:10;16.17;;;10.20;;
37205;SDS011;23099;42.636;23.198;2022-07-06T06:00:37;19.38;;;11.27;;
37205;SDS011;23099;42.636;23.198;2022-07-06T06:03:04;16.35;;;9.52;;
37205;SDS011;23099;42.636;23.198;2022-07-06T06:05:31;16.70;;;10.15;;
37205;SDS011;23099;42.636;23.198;2022-07-06T06:07:59;19.50;;;10.50;;
37205;SDS011;23099;42.636;23.198;2022-07-06T06:10:26;21.02;;;10.82;;
37205;SDS011;23099;42.636;23.198;2022-07-06T06:12:52;20.25;;;11.43;;
37205;SDS011;23099;42.636;23.198;2022-07-06T06:15:19;15.52;;;9.70;;
37205;SDS011;23099;42.636;23.198;2022-07-06T06:17:46;20.00;;;10.80;;
37205;SDS011;23099;42.636;23.198;2022-07-06T06:20:13;19.15;;;11.05;;
37205;SDS011;23099;42.636;23.198;2022-07-06T06:22:44;17.73;;;11.38;;
37205;SDS011;23099;42.636;23.198;2022-07-06T06:25:14;15.30;;;11.05;;
37205;SDS011;23099;42.636;23.198;2022-07-06T06:27:41;16.55;;;10.25;;
37205;SDS011;23099;42.636;23.198;2022-07-06T06:30:08;17.20;;;11.02;;
37205;SDS011;23099;42.636;23.198;2022-07-06T06:32:36;19.80;;;10.25;;
37205;SDS011;23099;42.636;23.198;2022-07-06T06:35:03;21.98;;;12.18;;
37205;SDS011;23099;42.636;23.198;2022-07-06T06:37:30;16.83;;;11.45;;
37205;SDS011;23099;42.636;23.198;2022-07-06T06:39:57;17.58;;;12.15;;
37205;SDS011;23099;42.636;23.198;2022-07-06T06:42:25;18.65;;;11.88;;
37205;SDS011;23099;42.636;23.198;2022-07-06T06:44:52;20.38;;;11.73;;
37205;SDS011;23099;42.636;23.198;2022-07-06T06:47:18;18.08;;;11.35;;
37205;SDS011;23099;42.636;23.198;2022-07-06T06:49:45;18.88;;;11.20;;
37205;SDS011;23099;42.636;23.198;2022-07-06T06:52:12;20.60;;;11.07;;
37205;SDS011;23099;42.636;23.198;2022-07-06T06:54:39;14.13;;;10.00;;
37205;SDS011;23099;42.636;23.198;2022-07-06T06:57:06;15.75;;;10.50;;
37205;SDS011;23099;42.636;23.198;2022-07-06T06:59:34;17.75;;;12.18;;
37205;SDS011;23099;42.636;23.198;2022-07-06T07:02:01;19.60;;;11.68;;
37205;SDS011;23099;42.636;23.198;2022-07-06T07:04:28;19.30;;;12.75;;
37205;SDS011;23099;42.636;23.198;2022-07-06T07:06:56;18.93;;;12.47;;
37205;SDS011;23099;42.636;23.198;2022-07-06T07:09:23;20.08;;;13.00;;
37205;SDS011;23099;42.636;23.198;2022-07-06T07:11:49;22.27;;;13.05;;
37205;SDS011;23099;42.636;23.198;2022-07-06T07:14:16;24.88;;;14.60;;
37205;SDS011;23099;42.636;23.198;2022-07-06T07:16:44;19.67;;;14.32;;
37205;SDS011;23099;42.636;23.198;2022-07-06T07:19:11;21.58;;;14.27;;
37205;SDS011;23099;42.636;23.198;2022-07-06T07:21:38;20.77;;;13.68;;
37205;SDS011;23099;42.636;23.198;2022-07-06T07:24:05;21.33;;;13.95;;
37205;SDS011;23099;42.636;23.198;2022-07-06T07:26:33;23.17;;;15.60;;
37205;SDS011;23099;42.636;23.198;2022-07-06T07:29:00;20.15;;;15.43;;
37205;SDS011;23099;42.636;23.198;2022-07-06T07:31:27;20.75;;;15.32;;
37205;SDS011;23099;42.636;23.198;2022-07-06T07:33:55;20.10;;;14.75;;
37205;SDS011;23099;42.636;23.198;2022-07-06T07:36:23;18.27;;;13.52;;
37205;SDS011;23099;42.636;23.198;2022-07-06T07:38:50;21.55;;;14.70;;
37205;SDS011;23099;42.636;23.198;2022-07-06T07:41:17;20.00;;;14.00;;
37205;SDS011;23099;42.636;23.198;2022-07-06T07:43:44;20.35;;;14.52;;
37205;SDS011;23099;42.636;23.198;2022-07-06T07:46:11;21.95;;;15.18;;
37205;SDS011;23099;42.636;23.198;2022-07-06T07:48:38;21.20;;;15.00;;
37205;SDS011;23099;42.636;23.198;2022-07-06T07:51:06;23.88;;;16.63;;
37205;SDS011;23099;42.636;23.198;2022-07-06T07:53:33;22.40;;;15.60;;
37205;SDS011;23099;42.636;23.198;2022-07-06T07:56:00;21.75;;;16.33;;
37205;SDS011;23099;42.636;23.198;2022-07-06T07:58:27;24.48;;;17.25;;
37205;SDS011;23099;42.636;23.198;2022-07-06T08:00:54;20.92;;;16.30;;
37205;SDS011;23099;42.636;23.198;2022-07-06T08:03:21;22.33;;;16.17;;
37205;SDS011;23099;42.636;23.198;2022-07-06T08:05:48;23.02;;;16.13;;
37205;SDS011;23099;42.636;23.198;2022-07-06T08:08:17;23.38;;;15.82;;
37205;SDS011;23099;42.636;23.198;2022-07-06T08:10:44;23.00;;;15.20;;
37205;SDS011;23099;42.636;23.198;2022-07-06T08:13:10;21.15;;;14.80;;
37205;SDS011;23099;42.636;23.198;2022-07-06T08:15:39;21.95;;;15.70;;
37205;SDS011;23099;42.636;23.198;2022-07-06T08:18:07;20.13;;;14.80;;
37205;SDS011;23099;42.636;23.198;2022-07-06T08:20:34;22.75;;;15.48;;
37205;SDS011;23099;42.636;23.198;2022-07-06T08:23:01;20.17;;;15.52;;
37205;SDS011;23099;42.636;23.198;2022-07-06T08:25:29;21.75;;;15.32;;
37205;SDS011;23099;42.636;23.198;2022-07-06T08:30:23;22.25;;;15.85;;
37205;SDS011;23099;42.636;23.198;2022-07-06T08:32:50;19.85;;;16.27;;
37205;SDS011;23099;42.636;23.198;2022-07-06T08:35:17;22.63;;;17.10;;
37205;SDS011;23099;42.636;23.198;2022-07-06T08:37:44;24.07;;;16.43;;
37205;SDS011;23099;42.636;23.198;2022-07-06T08:40:11;21.65;;;16.00;;
37205;SDS011;23099;42.636;23.198;2022-07-06T08:42:39;22.95;;;16.15;;
37205;SDS011;23099;42.636;23.198;2022-07-06T08:45:07;23.38;;;16.17;;
37205;SDS011;23099;42.636;23.198;2022-07-06T08:47:35;19.85;;;14.23;;
37205;SDS011;23099;42.636;23.198;2022-07-06T08:50:04;23.17;;;16.98;;
37205;SDS011;23099;42.636;23.198;2022-07-06T08:52:31;25.13;;;17.10;;
37205;SDS011;23099;42.636;23.198;2022-07-06T08:54:58;22.98;;;16.25;;
37205;SDS011;23099;42.636;23.198;2022-07-06T08:57:26;23.37;;;16.73;;
37205;SDS011;23099;42.636;23.198;2022-07-06T08:59:54;20.52;;;15.02;;
37205;SDS011;23099;42.636;23.198;2022-07-06T09:02:22;22.52;;;15.38;;
37205;SDS011;23099;42.636;23.198;2022-07-06T09:04:51;21.67;;;15.07;;
37205;SDS011;23099;42.636;23.198;2022-07-06T09:07:21;19.13;;;13.35;;
37205;SDS011;23099;42.636;23.198;2022-07-06T09:09:49;21.57;;;16.00;;
37205;SDS011;23099;42.636;23.198;2022-07-06T09:12:18;20.13;;;14.57;;
37205;SDS011;23099;42.636;23.198;2022-07-06T09:14:45;19.65;;;13.13;;
37205;SDS011;23099;42.636;23.198;2022-07-06T09:17:13;18.00;;;12.73;;
37205;SDS011;23099;42.636;23.198;2022-07-06T09:22:07;20.75;;;14.68;;
37205;SDS011;23099;42.636;23.198;2022-07-06T09:24:37;24.67;;;17.27;;
37205;SDS011;23099;42.636;23.198;2022-07-06T09:27:14;16.13;;;11.73;;
37205;SDS011;23099;42.636;23.198;2022-07-06T09:29:42;18.13;;;12.52;;
37205;SDS011;23099;42.636;23.198;2022-07-06T09:32:09;25.30;;;15.63;;
37205;SDS011;23099;42.636;23.198;2022-07-06T09:34:43;18.58;;;14.23;;
37205;SDS011;23099;42.636;23.198;2022-07-06T09:37:11;18.02;;;13.00;;
37205;SDS011;23099;42.636;23.198;2022-07-06T09:39:38;18.60;;;13.43;;
37205;SDS011;23099;42.636;23.198;2022-07-06T09:42:06;18.83;;;13.80;;
37205;SDS011;23099;42.636;23.198;2022-07-06T09:44:35;20.38;;;13.70;;
37205;SDS011;23099;42.636;23.198;2022-07-06T09:47:04;19.52;;;14.30;;
37205;SDS011;23099;42.636;23.198;2022-07-06T09:49:32;20.83;;;15.70;;
37205;SDS011;23099;42.636;23.198;2022-07-06T09:52:01;19.15;;;14.35;;
37205;SDS011;23099;42.636;23.198;2022-07-06T09:54:29;24.73;;;15.73;;
37205;SDS011;23099;42.636;23.198;2022-07-06T09:56:57;23.67;;;16.90;;
37205;SDS011;23099;42.636;23.198;2022-07-06T10:01:52;19.70;;;15.50;;
37205;SDS011;23099;42.636;23.198;2022-07-06T10:04:20;17.92;;;14.25;;
37205;SDS011;23099;42.636;23.198;2022-07-06T10:06:47;22.83;;;15.82;;
37205;SDS011;23099;42.636;23.198;2022-07-06T10:09:16;21.63;;;15.98;;
37205;SDS011;23099;42.636;23.198;2022-07-06T10:11:47;21.77;;;16.25;;
37205;SDS011;23099;42.636;23.198;2022-07-06T10:14:17;18.80;;;14.07;;
37205;SDS011;23099;42.636;23.198;2022-07-06T10:16:46;17.73;;;13.68;;
37205;SDS011;23099;42.636;23.198;2022-07-06T10:19:14;18.87;;;13.83;;
37205;SDS011;23099;42.636;23.198;2022-07-06T10:21:42;19.33;;;14.32;;
37205;SDS011;23099;42.636;23.198;2022-07-06T10:24:09;23.48;;;15.50;;
37205;SDS011;23099;42.636;23.198;2022-07-06T10:26:40;16.85;;;13.32;;
37205;SDS011;23099;42.636;23.198;2022-07-06T10:29:07;18.42;;;14.23;;
37205;SDS011;23099;42.636;23.198;2022-07-06T10:31:35;20.60;;;16.23;;
37205;SDS011;23099;42.636;23.198;2022-07-06T10:34:06;18.65;;;15.52;;
37205;SDS011;23099;42.636;23.198;2022-07-06T10:36:38;16.25;;;13.18;;
37205;SDS011;23099;42.636;23.198;2022-07-06T10:39:06;17.90;;;13.48;;
37205;SDS011;23099;42.636;23.198;2022-07-06T10:41:48;17.25;;;13.73;;
37205;SDS011;23099;42.636;23.198;2022-07-06T10:46:49;18.30;;;13.23;;
37205;SDS011;23099;42.636;23.198;2022-07-06T10:49:17;15.82;;;12.93;;
37205;SDS011;23099;42.636;23.198;2022-07-06T10:51:44;16.58;;;12.77;;
37205;SDS011;23099;42.636;23.198;2022-07-06T10:54:10;18.00;;;13.93;;
37205;SDS011;23099;42.636;23.198;2022-07-06T10:56:38;18.25;;;12.88;;
37205;SDS011;23099;42.636;23.198;2022-07-06T11:01:36;17.83;;;12.07;;
37205;SDS011;23099;42.636;23.198;2022-07-06T11:04:07;16.70;;;12.02;;
37205;SDS011;23099;42.636;23.198;2022-07-06T11:06:35;16.70;;;12.52;;
37205;SDS011;23099;42.636;23.198;2022-07-06T11:09:03;16.38;;;13.25;;
37205;SDS011;23099;42.636;23.198;2022-07-06T11:11:38;17.55;;;12.30;;
37205;SDS011;23099;42.636;23.198;2022-07-06T11:14:07;19.35;;;15.02;;
37205;SDS011;23099;42.636;23.198;2022-07-06T11:16:37;17.88;;;15.10;;
37205;SDS011;23099;42.636;23.198;2022-07-06T11:21:34;18.90;;;15.55;;
37205;SDS011;23099;42.636;23.198;2022-07-06T11:24:03;19.15;;;15.82;;
37205;SDS011;23099;42.636;23.198;2022-07-06T11:26:31;18.75;;;14.98;;
37205;SDS011;23099;42.636;23.198;2022-07-06T11:29:02;18.08;;;15.43;;
37205;SDS011;23099;42.636;23.198;2022-07-06T11:31:31;20.90;;;14.98;;
37205;SDS011;23099;42.636;23.198;2022-07-06T11:34:00;17.83;;;15.25;;
37205;SDS011;23099;42.636;23.198;2022-07-06T11:36:27;19.63;;;16.00;;
37205;SDS011;23099;42.636;23.198;2022-07-06T11:38:53;22.13;;;15.77;;
37205;SDS011;23099;42.636;23.198;2022-07-06T11:41:20;16.92;;;15.02;;
37205;SDS011;23099;42.636;23.198;2022-07-06T11:43:47;18.10;;;15.20;;
37205;SDS011;23099;42.636;23.198;2022-07-06T11:46:20;19.80;;;16.30;;
37205;SDS011;23099;42.636;23.198;2022-07-06T11:48:50;17.83;;;15.73;;
37205;SDS011;23099;42.636;23.198;2022-07-06T11:51:18;21.17;;;17.48;;
37205;SDS011;23099;42.636;23.198;2022-07-06T11:53:45;18.63;;;15.45;;
37205;SDS011;23099;42.636;23.198;2022-07-06T11:56:14;19.65;;;15.48;;
37205;SDS011;23099;42.636;23.198;2022-07-06T11:58:41;18.10;;;14.20;;
37205;SDS011;23099;42.636;23.198;2022-07-06T12:01:11;17.95;;;15.23;;
37205;SDS011;23099;42.636;23.198;2022-07-06T12:03:39;20.10;;;16.88;;
37205;SDS011;23099;42.636;23.198;2022-07-06T12:06:12;17.75;;;14.90;;
37205;SDS011;23099;42.636;23.198;2022-07-06T12:08:41;17.85;;;14.68;;
37205;SDS011;23099;42.636;23.198;2022-07-06T12:11:08;17.95;;;14.25;;
37205;SDS011;23099;42.636;23.198;2022-07-06T12:13:36;19.08;;;15.25;;
37205;SDS011;23099;42.636;23.198;2022-07-06T12:16:08;18.77;;;16.02;;
37205;SDS011;23099;42.636;23.198;2022-07-06T12:18:38;15.70;;;13.70;;
37205;SDS011;23099;42.636;23.198;2022-07-06T12:21:10;18.42;;;12.73;;
37205;SDS011;23099;42.636;23.198;2022-07-06T12:23:39;16.65;;;14.05;;
37205;SDS011;23099;42.636;23.198;2022-07-06T12:26:07;15.88;;;12.52;;
37205;SDS011;23099;42.636;23.198;2022-07-06T12:28:35;20.48;;;15.88;;
37205;SDS011;23099;42.636;23.198;2022-07-06T12:31:02;13.50;;;11.10;;
37205;SDS011;23099;42.636;23.198;2022-07-06T12:33:29;18.40;;;12.13;;
37205;SDS011;23099;42.636;23.198;2022-07-06T12:35:56;14.68;;;13.10;;
37205;SDS011;23099;42.636;23.198;2022-07-06T12:38:35;15.77;;;11.50;;
37205;SDS011;23099;42.636;23.198;2022-07-06T12:41:09;15.85;;;12.75;;
37205;SDS011;23099;42.636;23.198;2022-07-06T12:43:36;15.60;;;11.57;;
37205;SDS011;23099;42.636;23.198;2022-07-06T12:46:22;14.48;;;12.02;;
37205;SDS011;23099;42.636;23.198;2022-07-06T12:48:52;14.98;;;12.20;;
37205;SDS011;23099;42.636;23.198;2022-07-06T12:51:20;14.70;;;11.13;;
37205;SDS011;23099;42.636;23.198;2022-07-06T12:53:48;16.98;;;12.57;;
37205;SDS011;23099;42.636;23.198;2022-07-06T12:56:15;12.43;;;10.60;;
37205;SDS011;23099;42.636;23.198;2022-07-06T12:58:59;13.25;;;11.50;;
37205;SDS011;23099;42.636;23.198;2022-07-06T13:01:26;15.20;;;11.30;;
37205;SDS011;23099;42.636;23.198;2022-07-06T13:03:53;13.27;;;10.27;;
37205;SDS011;23099;42.636;23.198;2022-07-06T13:06:31;11.63;;;9.27;;
37205;SDS011;23099;42.636;23.198;2022-07-06T13:09:00;13.60;;;9.32;;
37205;SDS011;23099;42.636;23.198;2022-07-06T13:13:53;11.80;;;7.72;;
37205;SDS011;23099;42.636;23.198;2022-07-06T13:16:20;10.98;;;8.85;;
37205;SDS011;23099;42.636;23.198;2022-07-06T13:18:49;10.02;;;8.00;;
37205;SDS011;23099;42.636;23.198;2022-07-06T13:21:16;8.73;;;6.65;;
37205;SDS011;23099;42.636;23.198;2022-07-06T13:23:43;8.15;;;6.55;;
37205;SDS011;23099;42.636;23.198;2022-07-06T13:26:11;9.50;;;6.63;;
37205;SDS011;23099;42.636;23.198;2022-07-06T13:31:04;9.98;;;6.57;;
37205;SDS011;23099;42.636;23.198;2022-07-06T13:33:31;7.70;;;5.63;;
37205;SDS011;23099;42.636;23.198;2022-07-06T13:35:57;10.02;;;5.45;;
37205;SDS011;23099;42.636;23.198;2022-07-06T13:38:24;7.18;;;5.00;;
37205;SDS011;23099;42.636;23.198;2022-07-06T13:40:51;6.63;;;5.40;;
37205;SDS011;23099;42.636;23.198;2022-07-06T13:43:19;7.97;;;5.70;;
37205;SDS011;23099;42.636;23.198;2022-07-06T13:48:13;6.13;;;4.10;;
37205;SDS011;23099;42.636;23.198;2022-07-06T13:50:40;7.78;;;3.50;;
37205;SDS011;23099;42.636;23.198;2022-07-06T13:53:07;5.57;;;2.10;;
37205;SDS011;23099;42.636;23.198;2022-07-06T13:55:34;6.10;;;2.83;;
37205;SDS011;23099;42.636;23.198;2022-07-06T13:58:01;3.67;;;1.92;;
37205;SDS011;23099;42.636;23.198;2022-07-06T14:00:29;4.85;;;2.33;;
37205;SDS011;23099;42.636;23.198;2022-07-06T14:05:22;4.13;;;1.45;;
37205;SDS011;23099;42.636;23.198;2022-07-06T14:07:49;4.03;;;1.55;;
37205;SDS011;23099;42.636;23.198;2022-07-06T14:10:16;2.83;;;1.50;;
37205;SDS011;23099;42.636;23.198;2022-07-06T14:12:43;4.28;;;1.42;;
37205;SDS011;23099;42.636;23.198;2022-07-06T14:15:09;3.05;;;1.55;;
37205;SDS011;23099;42.636;23.198;2022-07-06T14:17:37;3.83;;;1.40;;
37205;SDS011;23099;42.636;23.198;2022-07-06T14:22:31;3.13;;;1.17;;
37205;SDS011;23099;42.636;23.198;2022-07-06T14:24:58;3.53;;;1.40;;
37205;SDS011;23099;42.636;23.198;2022-07-06T14:27:25;3.60;;;1.40;;
37205;SDS011;23099;42.636;23.198;2022-07-06T14:29:52;3.80;;;1.40;;
37205;SDS011;23099;42.636;23.198;2022-07-06T14:32:19;3.58;;;1.52;;
37205;SDS011;23099;42.636;23.198;2022-07-06T14:34:47;5.18;;;1.65;;
37205;SDS011;23099;42.636;23.198;2022-07-06T14:39:40;5.72;;;1.70;;
37205;SDS011;23099;42.636;23.198;2022-07-06T14:42:07;4.55;;;1.75;;
37205;SDS011;23099;42.636;23.198;2022-07-06T14:44:34;6.15;;;1.45;;
37205;SDS011;23099;42.636;23.198;2022-07-06T14:47:01;3.30;;;1.40;;
37205;SDS011;23099;42.636;23.198;2022-07-06T14:49:28;4.87;;;1.23;;
37205;SDS011;23099;42.636;23.198;2022-07-06T14:51:56;5.25;;;1.52;;
37205;SDS011;23099;42.636;23.198;2022-07-06T14:56:50;7.45;;;1.60;;